sensor_id;sensor_type;location;lat;lon;timestamp;pressure;altitude;pressure_sealevel;temperature;humidity
49122;BME280;35529;44.342;25.944;2024-02-04T00:02:17;100875.72;;;4.31;100.00
49122;BME280;35529;44.342;25.944;2024-02-04T00:04:48;100881.88;;;4.22;100.00
49122;BME280;35529;44.342;25.944;2024-02-04T00:07:14;100874.28;;;4.09;100.00
49122;BME280;35529;44.342;25.944;2024-02-04T00:09:43;100877.09;;;3.98;100.00
49122;BME280;35529;44.342;25.944;2024-02-04T00:12:15;100874.91;;;3.93;100.00
49122;BME280;35529;44.342;25.944;2024-02-04T00:14:46;100875.59;;;3.85;100.00
49122;BME280;35529;44.342;25.944;2024-02-04T00:17:15;100860.94;;;3.83;100.00
49122;BME280;35529;44.342;25.944;2024-02-04T00:19:44;100872.25;;;3.93;100.00
49122;BME280;35529;44.342;25.944;2024-02-04T00:22:10;100871.41;;;4.02;100.00
49122;BME280;35529;44.342;25.944;2024-02-04T00:24:39;100865.19;;;4.03;100.00
49122;BME280;35529;44.342;25.944;2024-02-04T00:27:08;100845.34;;;4.19;100.00
49122;BME280;35529;44.342;25.944;2024-02-04T00:29:39;100859.66;;;4.34;100.00
49122;BME280;35529;44.342;25.944;2024-02-04T00:32:06;100843.28;;;4.41;100.00
49122;BME280;35529;44.342;25.944;2024-02-04T00:34:35;100845.72;;;4.52;100.00
49122;BME280;35529;44.342;25.944;2024-02-04T00:37:03;100837.38;;;4.57;100.00
49122;BME280;35529;44.342;25.944;2024-02-04T00:39:34;100833.38;;;4.52;100.00
49122;BME280;35529;44.342;25.944;2024-02-04T00:45:12;100808.75;;;4.53;100.00
49122;BME280;35529;44.342;25.944;2024-02-04T00:47:38;100823.03;;;4.51;100.00
49122;BME280;35529;44.342;25.944;2024-02-04T00:50:08;100816.03;;;4.42;100.00
49122;BME280;35529;44.342;25.944;2024-02-04T00:52:38;100807.38;;;4.31;100.00
49122;BME280;35529;44.342;25.944;2024-02-04T00:55:08;100812.41;;;4.25;100.00
49122;BME280;35529;44.342;25.944;2024-02-04T00:57:35;100799.69;;;4.20;100.00
49122;BME280;35529;44.342;25.944;2024-02-04T01:00:01;100813.53;;;4.22;100.00
49122;BME280;35529;44.342;25.944;2024-02-04T01:02:27;100825.16;;;4.19;100.00
49122;BME280;35529;44.342;25.944;2024-02-04T01:04:54;100806.91;;;4.18;100.00
49122;BME280;35529;44.342;25.944;2024-02-04T01:07:25;100809.91;;;4.23;100.00
49122;BME280;35529;44.342;25.944;2024-02-04T01:09:51;100818.19;;;4.28;100.00
49122;BME280;35529;44.342;25.944;2024-02-04T01:12:17;100807.28;;;4.23;100.00
49122;BME280;35529;44.342;25.944;2024-02-04T01:14:43;100801.66;;;4.18;100.00
49122;BME280;35529;44.342;25.944;2024-02-04T01:17:09;100800.56;;;4.11;100.00
49122;BME280;35529;44.342;25.944;2024-02-04T01:19:35;100801.72;;;3.98;100.00
49122;BME280;35529;44.342;25.944;2024-02-04T01:22:02;100791.13;;;3.90;100.00
49122;BME280;35529;44.342;25.944;2024-02-04T01:24:28;100795.44;;;3.81;100.00
49122;BME280;35529;44.342;25.944;2024-02-04T01:26:54;100794.22;;;3.76;100.00
49122;BME280;35529;44.342;25.944;2024-02-04T01:29:20;100796.53;;;3.79;100.00
49122;BME280;35529;44.342;25.944;2024-02-04T01:31:46;100796.78;;;3.85;100.00
49122;BME280;35529;44.342;25.944;2024-02-04T01:34:13;100801.22;;;3.85;100.00
49122;BME280;35529;44.342;25.944;2024-02-04T01:36:39;100808.56;;;3.81;100.00
49122;BME280;35529;44.342;25.944;2024-02-04T01:39:05;100794.47;;;3.82;100.00
49122;BME280;35529;44.342;25.944;2024-02-04T01:41:33;100792.09;;;3.89;100.00
49122;BME280;35529;44.342;25.944;2024-02-04T01:44:02;100781.69;;;3.97;100.00
49122;BME280;35529;44.342;25.944;2024-02-04T01:46:30;100775.94;;;4.12;100.00
49122;BME280;35529;44.342;25.944;2024-02-04T01:49:02;100779.63;;;4.19;100.00
49122;BME280;35529;44.342;25.944;2024-02-04T01:51:28;100782.81;;;4.23;100.00
49122;BME280;35529;44.342;25.944;2024-02-04T01:53:56;100778.00;;;4.18;100.00
49122;BME280;35529;44.342;25.944;2024-02-04T01:56:25;100782.00;;;4.12;100.00
49122;BME280;35529;44.342;25.944;2024-02-04T01:58:53;100793.28;;;4.05;100.00
49122;BME280;35529;44.342;25.944;2024-02-04T02:01:20;100785.00;;;3.99;100.00
49122;BME280;35529;44.342;25.944;2024-02-04T02:03:48;100792.03;;;3.99;100.00
49122;BME280;35529;44.342;25.944;2024-02-04T02:06:16;100781.25;;;4.02;100.00
49122;BME280;35529;44.342;25.944;2024-02-04T02:08:45;100784.41;;;4.06;100.00
49122;BME280;35529;44.342;25.944;2024-02-04T02:11:20;100799.75;;;4.10;100.00
49122;BME280;35529;44.342;25.944;2024-02-04T02:13:49;100803.97;;;4.21;100.00
49122;BME280;35529;44.342;25.944;2024-02-04T02:16:18;100793.84;;;4.26;100.00
49122;BME280;35529;44.342;25.944;2024-02-04T02:18:56;100783.44;;;4.34;100.00
49122;BME280;35529;44.342;25.944;2024-02-04T02:26:50;100785.69;;;4.47;100.00
49122;BME280;35529;44.342;25.944;2024-02-04T02:29:18;100773.38;;;4.48;100.00
49122;BME280;35529;44.342;25.944;2024-02-04T02:31:48;100776.44;;;4.43;100.00
49122;BME280;35529;44.342;25.944;2024-02-04T02:34:14;100756.09;;;4.45;100.00
49122;BME280;35529;44.342;25.944;2024-02-04T02:36:44;100754.13;;;4.47;100.00
49122;BME280;35529;44.342;25.944;2024-02-04T02:39:18;100750.75;;;4.55;100.00
49122;BME280;35529;44.342;25.944;2024-02-04T02:41:52;100752.56;;;4.55;100.00
49122;BME280;35529;44.342;25.944;2024-02-04T02:44:24;100757.75;;;4.46;100.00
49122;BME280;35529;44.342;25.944;2024-02-04T02:46:54;100761.03;;;4.48;100.00
49122;BME280;35529;44.342;25.944;2024-02-04T02:49:22;100755.63;;;4.50;100.00
49122;BME280;35529;44.342;25.944;2024-02-04T02:51:54;100759.09;;;4.50;100.00
49122;BME280;35529;44.342;25.944;2024-02-04T02:54:20;100754.97;;;4.48;100.00
49122;BME280;35529;44.342;25.944;2024-02-04T02:56:49;100759.16;;;4.41;100.00
49122;BME280;35529;44.342;25.944;2024-02-04T02:59:17;100750.28;;;4.42;100.00
49122;BME280;35529;44.342;25.944;2024-02-04T03:01:44;100746.00;;;4.41;100.00
49122;BME280;35529;44.342;25.944;2024-02-04T03:04:10;100728.59;;;4.40;100.00
49122;BME280;35529;44.342;25.944;2024-02-04T03:06:38;100715.63;;;4.38;100.00
49122;BME280;35529;44.342;25.944;2024-02-04T03:09:06;100716.72;;;4.35;100.00
49122;BME280;35529;44.342;25.944;2024-02-04T03:11:36;100707.34;;;4.33;100.00
49122;BME280;35529;44.342;25.944;2024-02-04T03:14:03;100708.47;;;4.30;100.00
49122;BME280;35529;44.342;25.944;2024-02-04T03:16:32;100725.91;;;4.31;100.00
49122;BME280;35529;44.342;25.944;2024-02-04T03:18:58;100725.28;;;4.38;100.00
49122;BME280;35529;44.342;25.944;2024-02-04T03:21:26;100739.13;;;4.40;100.00
49122;BME280;35529;44.342;25.944;2024-02-04T03:23:52;100743.25;;;4.42;100.00
49122;BME280;35529;44.342;25.944;2024-02-04T03:26:21;100753.63;;;4.44;100.00
49122;BME280;35529;44.342;25.944;2024-02-04T03:28:47;100743.09;;;4.44;100.00
49122;BME280;35529;44.342;25.944;2024-02-04T03:31:23;100731.16;;;4.49;100.00
49122;BME280;35529;44.342;25.944;2024-02-04T03:33:49;100722.72;;;4.46;100.00
49122;BME280;35529;44.342;25.944;2024-02-04T03:36:19;100723.34;;;4.40;100.00
49122;BME280;35529;44.342;25.944;2024-02-04T03:38:46;100750.28;;;4.42;100.00
49122;BME280;35529;44.342;25.944;2024-02-04T03:41:12;100730.78;;;4.44;100.00
49122;BME280;35529;44.342;25.944;2024-02-04T03:43:40;100731.47;;;4.46;100.00
49122;BME280;35529;44.342;25.944;2024-02-04T03:46:06;100726.47;;;4.43;100.00
49122;BME280;35529;44.342;25.944;2024-02-04T03:48:35;100732.94;;;4.31;100.00
49122;BME280;35529;44.342;25.944;2024-02-04T03:51:05;100738.56;;;4.18;100.00
49122;BME280;35529;44.342;25.944;2024-02-04T03:53:31;100738.69;;;3.98;100.00
49122;BME280;35529;44.342;25.944;2024-02-04T03:55:57;100745.91;;;3.86;100.00
49122;BME280;35529;44.342;25.944;2024-02-04T03:58:25;100749.28;;;3.79;100.00
49122;BME280;35529;44.342;25.944;2024-02-04T04:00:55;100735.47;;;3.77;100.00
49122;BME280;35529;44.342;25.944;2024-02-04T04:03:27;100717.75;;;3.79;100.00
49122;BME280;35529;44.342;25.944;2024-02-04T04:05:56;100725.88;;;3.85;100.00
49122;BME280;35529;44.342;25.944;2024-02-04T04:08:22;100722.97;;;3.89;100.00
49122;BME280;35529;44.342;25.944;2024-02-04T04:10:48;100719.09;;;3.93;100.00
49122;BME280;35529;44.342;25.944;2024-02-04T04:13:14;100735.66;;;3.93;100.00
49122;BME280;35529;44.342;25.944;2024-02-04T04:15:40;100752.69;;;3.89;100.00
49122;BME280;35529;44.342;25.944;2024-02-04T04:18:09;100750.75;;;3.91;100.00
49122;BME280;35529;44.342;25.944;2024-02-04T04:20:38;100749.38;;;3.87;100.00
49122;BME280;35529;44.342;25.944;2024-02-04T04:23:07;100741.78;;;3.84;100.00
49122;BME280;35529;44.342;25.944;2024-02-04T04:25:33;100746.38;;;3.82;100.00
49122;BME280;35529;44.342;25.944;2024-02-04T04:27:59;100748.56;;;3.86;100.00
49122;BME280;35529;44.342;25.944;2024-02-04T04:30:30;100751.72;;;3.90;100.00
49122;BME280;35529;44.342;25.944;2024-02-04T04:32:56;100739.66;;;3.97;100.00
49122;BME280;35529;44.342;25.944;2024-02-04T04:35:25;100737.25;;;4.04;100.00
49122;BME280;35529;44.342;25.944;2024-02-04T04:37:54;100747.69;;;4.14;100.00
49122;BME280;35529;44.342;25.944;2024-02-04T04:40:22;100750.06;;;4.17;100.00
49122;BME280;35529;44.342;25.944;2024-02-04T04:42:48;100747.69;;;4.14;100.00
49122;BME280;35529;44.342;25.944;2024-02-04T04:45:17;100753.25;;;4.11;100.00
49122;BME280;35529;44.342;25.944;2024-02-04T04:47:45;100756.84;;;4.10;100.00
49122;BME280;35529;44.342;25.944;2024-02-04T04:50:12;100755.50;;;4.06;100.00
49122;BME280;35529;44.342;25.944;2024-02-04T04:52:38;100751.91;;;4.07;100.00
49122;BME280;35529;44.342;25.944;2024-02-04T04:55:07;100747.69;;;4.14;100.00
49122;BME280;35529;44.342;25.944;2024-02-04T04:57:41;100754.34;;;4.18;100.00
49122;BME280;35529;44.342;25.944;2024-02-04T05:00:36;100755.97;;;4.19;100.00
49122;BME280;35529;44.342;25.944;2024-02-04T05:30:25;100787.16;;;3.76;100.00
49122;BME280;35529;44.342;25.944;2024-02-04T05:32:51;100778.75;;;3.73;100.00
49122;BME280;35529;44.342;25.944;2024-02-04T05:35:17;100787.91;;;3.68;100.00
49122;BME280;35529;44.342;25.944;2024-02-04T05:37:46;100788.31;;;3.64;100.00
49122;BME280;35529;44.342;25.944;2024-02-04T05:40:15;100781.53;;;3.61;100.00
49122;BME280;35529;44.342;25.944;2024-02-04T05:42:45;100773.25;;;3.66;100.00
49122;BME280;35529;44.342;25.944;2024-02-04T05:45:14;100779.03;;;3.69;100.00
49122;BME280;35529;44.342;25.944;2024-02-04T05:47:45;100787.59;;;3.72;100.00
49122;BME280;35529;44.342;25.944;2024-02-04T05:50:14;100775.28;;;3.82;100.00
49122;BME280;35529;44.342;25.944;2024-02-04T05:52:40;100777.28;;;3.88;100.00
49122;BME280;35529;44.342;25.944;2024-02-04T05:55:09;100771.06;;;3.89;100.00
49122;BME280;35529;44.342;25.944;2024-02-04T05:57:38;100769.16;;;3.91;100.00
49122;BME280;35529;44.342;25.944;2024-02-04T06:00:08;100782.22;;;4.01;100.00
49122;BME280;35529;44.342;25.944;2024-02-04T06:02:36;100779.28;;;4.04;100.00
49122;BME280;35529;44.342;25.944;2024-02-04T06:05:02;100790.34;;;4.08;100.00
49122;BME280;35529;44.342;25.944;2024-02-04T06:07:31;100783.97;;;4.10;100.00
49122;BME280;35529;44.342;25.944;2024-02-04T06:09:57;100772.50;;;4.11;100.00
49122;BME280;35529;44.342;25.944;2024-02-04T06:12:25;100768.25;;;4.00;100.00
49122;BME280;35529;44.342;25.944;2024-02-04T06:14:51;100760.00;;;3.95;100.00
49122;BME280;35529;44.342;25.944;2024-02-04T06:17:17;100769.38;;;3.98;100.00
49122;BME280;35529;44.342;25.944;2024-02-04T06:19:46;100775.47;;;3.98;100.00
49122;BME280;35529;44.342;25.944;2024-02-04T06:22:12;100786.28;;;3.95;100.00
49122;BME280;35529;44.342;25.944;2024-02-04T06:24:38;100783.34;;;3.98;100.00
49122;BME280;35529;44.342;25.944;2024-02-04T06:27:07;100784.00;;;4.00;100.00
49122;BME280;35529;44.342;25.944;2024-02-04T06:29:33;100803.78;;;4.05;100.00
49122;BME280;35529;44.342;25.944;2024-02-04T06:32:03;100811.66;;;4.05;100.00
49122;BME280;35529;44.342;25.944;2024-02-04T06:34:31;100810.00;;;4.03;100.00
49122;BME280;35529;44.342;25.944;2024-02-04T06:37:00;100820.63;;;4.12;100.00
49122;BME280;35529;44.342;25.944;2024-02-04T06:39:32;100807.66;;;4.28;100.00
49122;BME280;35529;44.342;25.944;2024-02-04T06:42:01;100811.72;;;4.41;100.00
49122;BME280;35529;44.342;25.944;2024-02-04T06:44:30;100813.25;;;4.43;100.00
49122;BME280;35529;44.342;25.944;2024-02-04T06:46:59;100814.47;;;4.49;100.00
49122;BME280;35529;44.342;25.944;2024-02-04T06:49:25;100808.78;;;4.72;100.00
49122;BME280;35529;44.342;25.944;2024-02-04T06:51:54;100814.72;;;4.92;100.00
49122;BME280;35529;44.342;25.944;2024-02-04T06:54:26;100830.19;;;5.13;100.00
49122;BME280;35529;44.342;25.944;2024-02-04T06:56:52;100828.81;;;5.27;100.00
49122;BME280;35529;44.342;25.944;2024-02-04T06:59:23;100819.16;;;5.35;100.00
49122;BME280;35529;44.342;25.944;2024-02-04T07:02:05;100814.31;;;5.49;100.00
49122;BME280;35529;44.342;25.944;2024-02-04T07:59:18;100765.22;;;7.09;100.00
49122;BME280;35529;44.342;25.944;2024-02-04T08:01:47;100769.97;;;7.14;100.00
49122;BME280;35529;44.342;25.944;2024-02-04T08:04:13;100761.25;;;7.13;100.00
49122;BME280;35529;44.342;25.944;2024-02-04T08:06:41;100775.91;;;7.24;100.00
49122;BME280;35529;44.342;25.944;2024-02-04T08:09:09;100773.13;;;7.17;100.00
49122;BME280;35529;44.342;25.944;2024-02-04T08:11:40;100777.91;;;7.22;100.00
49122;BME280;35529;44.342;25.944;2024-02-04T08:14:14;100787.16;;;7.26;100.00
49122;BME280;35529;44.342;25.944;2024-02-04T08:16:43;100796.41;;;7.22;100.00
49122;BME280;35529;44.342;25.944;2024-02-04T08:19:14;100784.81;;;7.23;100.00
49122;BME280;35529;44.342;25.944;2024-02-04T08:21:43;100790.63;;;7.10;100.00
49122;BME280;35529;44.342;25.944;2024-02-04T08:24:12;100788.63;;;7.04;100.00
49122;BME280;35529;44.342;25.944;2024-02-04T08:26:38;100807.94;;;7.04;100.00
49122;BME280;35529;44.342;25.944;2024-02-04T08:29:09;100800.69;;;6.90;100.00
49122;BME280;35529;44.342;25.944;2024-02-04T08:31:37;100809.59;;;6.97;100.00
49122;BME280;35529;44.342;25.944;2024-02-04T08:34:07;100801.34;;;6.92;100.00
49122;BME280;35529;44.342;25.944;2024-02-04T08:36:38;100794.44;;;6.99;100.00
49122;BME280;35529;44.342;25.944;2024-02-04T08:39:07;100792.44;;;7.10;100.00
49122;BME280;35529;44.342;25.944;2024-02-04T08:41:38;100805.81;;;7.33;100.00
49122;BME280;35529;44.342;25.944;2024-02-04T08:44:06;100804.25;;;7.55;100.00
49122;BME280;35529;44.342;25.944;2024-02-04T08:46:35;100813.63;;;7.74;100.00
49122;BME280;35529;44.342;25.944;2024-02-04T08:49:01;100820.88;;;7.80;100.00
49122;BME280;35529;44.342;25.944;2024-02-04T08:51:33;100809.19;;;7.75;100.00
49122;BME280;35529;44.342;25.944;2024-02-04T08:54:02;100806.22;;;7.69;100.00
49122;BME280;35529;44.342;25.944;2024-02-04T08:56:28;100811.69;;;7.68;100.00
49122;BME280;35529;44.342;25.944;2024-02-04T08:59:00;100796.28;;;7.71;100.00
49122;BME280;35529;44.342;25.944;2024-02-04T09:01:29;100804.06;;;7.65;100.00
49122;BME280;35529;44.342;25.944;2024-02-04T13:57:21;100561.97;;;13.63;100.00
49122;BME280;35529;44.342;25.944;2024-02-04T13:59:52;100550.84;;;13.66;100.00
49122;BME280;35529;44.342;25.944;2024-02-04T14:02:21;100546.13;;;13.68;100.00
49122;BME280;35529;44.342;25.944;2024-02-04T14:04:49;100553.09;;;13.69;100.00
49122;BME280;35529;44.342;25.944;2024-02-04T14:07:21;100546.34;;;13.66;100.00
49122;BME280;35529;44.342;25.944;2024-02-04T14:09:51;100553.13;;;13.62;100.00
49122;BME280;35529;44.342;25.944;2024-02-04T14:12:20;100568.72;;;13.65;100.00
49122;BME280;35529;44.342;25.944;2024-02-04T14:14:46;100566.06;;;13.65;100.00
49122;BME280;35529;44.342;25.944;2024-02-04T14:17:12;100575.09;;;13.64;100.00
49122;BME280;35529;44.342;25.944;2024-02-04T14:19:41;100570.38;;;13.66;100.00
49122;BME280;35529;44.342;25.944;2024-02-04T14:22:09;100575.09;;;13.64;100.00
49122;BME280;35529;44.342;25.944;2024-02-04T14:24:38;100562.41;;;13.60;100.00
49122;BME280;35529;44.342;25.944;2024-02-04T14:27:07;100574.72;;;13.54;100.00
49122;BME280;35529;44.342;25.944;2024-02-04T14:29:33;100569.22;;;13.49;100.00
49122;BME280;35529;44.342;25.944;2024-02-04T14:32:02;100574.97;;;13.46;100.00
49122;BME280;35529;44.342;25.944;2024-02-04T14:34:30;100579.09;;;13.41;100.00
49122;BME280;35529;44.342;25.944;2024-02-04T14:36:59;100574.00;;;13.40;100.00
49122;BME280;35529;44.342;25.944;2024-02-04T14:39:25;100569.09;;;13.30;100.00
49122;BME280;35529;44.342;25.944;2024-02-04T14:41:54;100565.41;;;13.24;100.00
49122;BME280;35529;44.342;25.944;2024-02-04T14:44:22;100569.50;;;13.20;100.00
49122;BME280;35529;44.342;25.944;2024-02-04T14:46:49;100578.56;;;13.19;100.00
49122;BME280;35529;44.342;25.944;2024-02-04T14:49:15;100577.94;;;13.17;100.00
49122;BME280;35529;44.342;25.944;2024-02-04T14:51:41;100588.44;;;13.05;100.00
49122;BME280;35529;44.342;25.944;2024-02-04T14:54:10;100592.56;;;12.95;100.00
49122;BME280;35529;44.342;25.944;2024-02-04T14:56:37;100584.63;;;12.81;100.00
49122;BME280;35529;44.342;25.944;2024-02-04T14:59:05;100581.56;;;12.71;100.00
49122;BME280;35529;44.342;25.944;2024-02-04T15:01:34;100579.34;;;12.54;100.00
49122;BME280;35529;44.342;25.944;2024-02-04T15:04:01;100580.97;;;12.49;100.00
49122;BME280;35529;44.342;25.944;2024-02-04T15:06:27;100590.41;;;12.45;100.00
49122;BME280;35529;44.342;25.944;2024-02-04T15:08:55;100582.81;;;12.41;100.00
49122;BME280;35529;44.342;25.944;2024-02-04T15:11:24;100580.38;;;12.33;100.00
49122;BME280;35529;44.342;25.944;2024-02-04T15:13:50;100577.09;;;12.18;100.00
49122;BME280;35529;44.342;25.944;2024-02-04T15:16:16;100579.13;;;12.09;100.00
49122;BME280;35529;44.342;25.944;2024-02-04T15:18:43;100584.03;;;12.05;100.00
49122;BME280;35529;44.342;25.944;2024-02-04T15:21:12;100585.69;;;12.00;100.00
49122;BME280;35529;44.342;25.944;2024-02-04T15:23:40;100580.13;;;11.95;100.00
49122;BME280;35529;44.342;25.944;2024-02-04T15:26:14;100593.81;;;11.85;100.00
49122;BME280;35529;44.342;25.944;2024-02-04T15:28:44;100585.00;;;11.71;100.00
49122;BME280;35529;44.342;25.944;2024-02-04T15:31:17;100574.72;;;11.61;100.00
49122;BME280;35529;44.342;25.944;2024-02-04T15:33:44;100577.56;;;11.53;100.00
49122;BME280;35529;44.342;25.944;2024-02-04T15:36:10;100569.78;;;11.45;100.00
49122;BME280;35529;44.342;25.944;2024-02-04T15:38:37;100564.22;;;11.33;100.00
49122;BME280;35529;44.342;25.944;2024-02-04T15:41:05;100566.25;;;11.24;100.00
49122;BME280;35529;44.342;25.944;2024-02-04T15:43:31;100563.75;;;11.16;100.00
49122;BME280;35529;44.342;25.944;2024-02-04T15:46:01;100578.22;;;11.06;100.00
49122;BME280;35529;44.342;25.944;2024-02-04T15:48:31;100577.13;;;10.94;100.00
49122;BME280;35529;44.342;25.944;2024-02-04T15:51:03;100572.97;;;10.85;100.00
49122;BME280;35529;44.342;25.944;2024-02-04T15:53:32;100584.00;;;10.82;100.00
49122;BME280;35529;44.342;25.944;2024-02-04T16:38:25;100590.00;;;10.12;100.00
49122;BME280;35529;44.342;25.944;2024-02-04T16:40:52;100587.69;;;10.02;100.00
49122;BME280;35529;44.342;25.944;2024-02-04T16:43:18;100582.25;;;9.89;100.00
49122;BME280;35529;44.342;25.944;2024-02-04T16:45:45;100588.03;;;9.78;100.00
49122;BME280;35529;44.342;25.944;2024-02-04T16:48:13;100595.69;;;9.66;100.00
49122;BME280;35529;44.342;25.944;2024-02-04T16:50:39;100590.94;;;9.61;100.00
49122;BME280;35529;44.342;25.944;2024-02-04T16:53:07;100592.69;;;9.54;100.00
49122;BME280;35529;44.342;25.944;2024-02-04T16:55:34;100597.66;;;9.42;100.00
49122;BME280;35529;44.342;25.944;2024-02-04T16:58:03;100602.41;;;9.32;100.00
49122;BME280;35529;44.342;25.944;2024-02-04T17:00:32;100606.53;;;9.19;100.00
49122;BME280;35529;44.342;25.944;2024-02-04T17:02:58;100605.88;;;9.17;100.00
49122;BME280;35529;44.342;25.944;2024-02-04T17:05:29;100615.88;;;9.15;100.00
49122;BME280;35529;44.342;25.944;2024-02-04T17:07:56;100619.22;;;9.24;100.00
49122;BME280;35529;44.342;25.944;2024-02-04T17:10:22;100610.25;;;9.40;100.00
49122;BME280;35529;44.342;25.944;2024-02-04T17:12:48;100604.50;;;9.51;100.00
49122;BME280;35529;44.342;25.944;2024-02-04T17:15:17;100599.03;;;9.75;100.00
49122;BME280;35529;44.342;25.944;2024-02-04T17:17:45;100591.78;;;9.83;100.00
49122;BME280;35529;44.342;25.944;2024-02-04T17:20:15;100599.03;;;9.96;100.00
49122;BME280;35529;44.342;25.944;2024-02-04T17:22:53;100599.94;;;10.03;100.00
49122;BME280;35529;44.342;25.944;2024-02-04T17:25:30;100606.25;;;10.02;100.00
49122;BME280;35529;44.342;25.944;2024-02-04T17:27:59;100626.13;;;10.13;100.00
49122;BME280;35529;44.342;25.944;2024-02-04T17:30:33;100615.53;;;10.35;100.00
49122;BME280;35529;44.342;25.944;2024-02-04T17:33:02;100603.97;;;10.43;100.00
49122;BME280;35529;44.342;25.944;2024-02-04T17:35:30;100595.47;;;10.32;100.00
49122;BME280;35529;44.342;25.944;2024-02-04T17:37:59;100605.47;;;10.30;100.00
49122;BME280;35529;44.342;25.944;2024-02-04T17:40:29;100616.25;;;10.29;100.00
49122;BME280;35529;44.342;25.944;2024-02-04T17:43:00;100614.34;;;10.37;100.00
49122;BME280;35529;44.342;25.944;2024-02-04T18:06:11;100638.69;;;9.83;100.00
49122;BME280;35529;44.342;25.944;2024-02-04T18:08:43;100646.88;;;9.66;100.00
49122;BME280;35529;44.342;25.944;2024-02-04T18:11:18;100640.75;;;9.51;100.00
49122;BME280;35529;44.342;25.944;2024-02-04T18:13:45;100638.03;;;9.44;100.00
49122;BME280;35529;44.342;25.944;2024-02-04T18:16:12;100641.63;;;9.36;100.00
49122;BME280;35529;44.342;25.944;2024-02-04T18:18:40;100646.66;;;9.31;100.00
49122;BME280;35529;44.342;25.944;2024-02-04T18:21:16;100651.28;;;9.29;100.00
49122;BME280;35529;44.342;25.944;2024-02-04T18:23:45;100636.41;;;9.28;100.00
49122;BME280;35529;44.342;25.944;2024-02-04T18:26:18;100654.41;;;9.18;100.00
49122;BME280;35529;44.342;25.944;2024-02-04T18:28:44;100653.56;;;9.17;100.00
49122;BME280;35529;44.342;25.944;2024-02-04T18:31:18;100656.59;;;9.14;100.00
49122;BME280;35529;44.342;25.944;2024-02-04T18:33:48;100660.44;;;9.12;100.00
49122;BME280;35529;44.342;25.944;2024-02-04T18:36:20;100663.53;;;9.15;100.00
49122;BME280;35529;44.342;25.944;2024-02-04T18:38:50;100645.28;;;9.20;100.00
49122;BME280;35529;44.342;25.944;2024-02-04T18:41:17;100646.91;;;9.21;100.00
49122;BME280;35529;44.342;25.944;2024-02-04T18:43:45;100650.59;;;9.20;100.00
49122;BME280;35529;44.342;25.944;2024-02-04T18:46:11;100642.81;;;9.19;100.00
49122;BME280;35529;44.342;25.944;2024-02-04T18:48:37;100636.59;;;9.12;100.00
49122;BME280;35529;44.342;25.944;2024-02-04T18:51:07;100646.28;;;9.04;100.00
49122;BME280;35529;44.342;25.944;2024-02-04T18:53:33;100651.66;;;8.96;100.00
49122;BME280;35529;44.342;25.944;2024-02-04T18:56:07;100648.09;;;8.89;100.00
49122;BME280;35529;44.342;25.944;2024-02-04T18:58:38;100652.75;;;8.87;100.00
49122;BME280;35529;44.342;25.944;2024-02-04T19:01:04;100654.28;;;8.81;100.00
49122;BME280;35529;44.342;25.944;2024-02-04T19:03:32;100667.06;;;8.78;100.00
49122;BME280;35529;44.342;25.944;2024-02-04T19:06:02;100670.31;;;8.65;100.00
49122;BME280;35529;44.342;25.944;2024-02-04T19:08:30;100665.28;;;8.55;100.00
49122;BME280;35529;44.342;25.944;2024-02-04T19:10:59;100671.31;;;8.41;100.00
49122;BME280;35529;44.342;25.944;2024-02-04T19:13:28;100677.66;;;8.31;100.00
49122;BME280;35529;44.342;25.944;2024-02-04T19:15:54;100669.78;;;8.23;100.00
49122;BME280;35529;44.342;25.944;2024-02-04T19:18:23;100672.31;;;8.16;100.00
49122;BME280;35529;44.342;25.944;2024-02-04T19:20:53;100685.78;;;8.07;100.00
49122;BME280;35529;44.342;25.944;2024-02-04T19:34:31;100676.75;;;7.61;100.00
49122;BME280;35529;44.342;25.944;2024-02-04T19:36:58;100694.28;;;7.54;100.00
49122;BME280;35529;44.342;25.944;2024-02-04T19:39:30;100698.22;;;7.58;100.00
49122;BME280;35529;44.342;25.944;2024-02-04T19:41:59;100691.63;;;7.62;100.00
49122;BME280;35529;44.342;25.944;2024-02-04T19:44:26;100680.38;;;7.60;100.00
49122;BME280;35529;44.342;25.944;2024-02-04T19:46:53;100685.66;;;7.60;100.00
49122;BME280;35529;44.342;25.944;2024-02-04T19:49:22;100688.94;;;7.70;100.00
49122;BME280;35529;44.342;25.944;2024-02-04T19:51:51;100685.25;;;7.80;100.00
49122;BME280;35529;44.342;25.944;2024-02-04T19:54:20;100682.75;;;7.78;100.00
49122;BME280;35529;44.342;25.944;2024-02-04T19:56:49;100693.06;;;7.73;100.00
49122;BME280;35529;44.342;25.944;2024-02-04T19:59:17;100685.00;;;7.66;100.00
49122;BME280;35529;44.342;25.944;2024-02-04T20:01:47;100690.59;;;7.63;100.00
49122;BME280;35529;44.342;25.944;2024-02-04T20:04:15;100684.50;;;7.63;100.00
49122;BME280;35529;44.342;25.944;2024-02-04T20:06:44;100688.81;;;7.64;100.00
49122;BME280;35529;44.342;25.944;2024-02-04T20:09:12;100698.72;;;7.62;100.00
49122;BME280;35529;44.342;25.944;2024-02-04T20:11:41;100698.91;;;7.52;100.00
49122;BME280;35529;44.342;25.944;2024-02-04T20:14:07;100703.22;;;7.45;100.00
49122;BME280;35529;44.342;25.944;2024-02-04T20:16:33;100695.16;;;7.38;100.00
49122;BME280;35529;44.342;25.944;2024-02-04T20:19:00;100687.75;;;7.33;100.00
49122;BME280;35529;44.342;25.944;2024-02-04T20:21:29;100688.28;;;7.29;100.00
49122;BME280;35529;44.342;25.944;2024-02-04T20:23:58;100686.47;;;7.21;100.00